Time;durP1;ratioP1;P1;durP2;ratioP2;P2;SDS_P1;SDS_P2;PMS_P1;PMS_P2;Temp;Humidity;BMP_temperature;BMP_pressure;BME280_temperature;BME280_humidity;BME280_pressure;Samples;Min_cycle;Max_cycle;Signal;HPM_P1;HPM_P2
2022/08/30 00:01:23;;;;;;;13.57;8.27;;;563.80;2432.00;;;;;;5035590;28;20091;-76
2022/08/30 00:03:49;;;;;;;10.05;8.32;;;563.90;2432.00;;;;;;5035896;28;20493;-79
2022/08/30 00:06:17;;;;;;;11.00;7.22;;;563.80;2432.00;;;;;;5035022;28;20086;-78
2022/08/30 00:08:44;;;;;;;14.27;8.43;;;563.90;2432.00;;;;;;5036847;28;20084;-80
2022/08/30 00:11:14;;;;;;;10.70;7.78;;;563.90;2432.00;;;;;;5036797;28;20091;-79
2022/08/30 00:13:43;;;;;;;12.05;7.90;;;563.90;2432.00;;;;;;5037653;28;20024;-78
2022/08/30 00:16:11;;;;;;;11.15;8.35;;;563.80;2432.00;;;;;;5048124;28;20018;-79
2022/08/30 00:18:37;;;;;;;14.75;8.15;;;563.80;2432.00;;;;;;5041637;28;20135;-78
2022/08/30 00:21:04;;;;;;;10.35;7.93;;;563.70;2432.00;;;;;;5034099;28;20026;-82
2022/08/30 00:23:31;;;;;;;11.55;8.25;;;563.80;2432.00;;;;;;5035528;28;20036;-79
2022/08/30 00:25:57;;;;;;;11.18;8.10;;;563.80;2432.00;;;;;;5034927;28;20032;-79
2022/08/30 00:28:23;;;;;;;11.82;7.95;;;563.70;2432.00;;;;;;5037936;28;20459;-78
2022/08/30 00:30:49;;;;;;;9.82;7.53;;;563.70;2432.00;;;;;;5036053;28;20064;-79
2022/08/30 00:33:15;;;;;;;13.18;8.10;;;563.70;2432.00;;;;;;5035056;28;20041;-78
2022/08/30 00:35:43;;;;;;;11.10;8.27;;;563.60;2432.00;;;;;;5037206;28;20045;-79
2022/08/30 00:38:11;;;;;;;11.30;7.28;;;563.70;2432.00;;;;;;5037918;28;20021;-81
2022/08/30 00:40:38;;;;;;;8.68;7.45;;;563.70;2432.00;;;;;;5039768;28;20085;-79
2022/08/30 00:43:08;;;;;;;15.55;8.00;;;563.70;2432.00;;;;;;5035117;28;20033;-79
2022/08/30 00:45:36;;;;;;;11.82;8.20;;;563.60;2432.00;;;;;;5037856;28;20036;-79
2022/08/30 00:48:04;;;;;;;9.70;7.95;;;563.60;2432.00;;;;;;5038846;28;20041;-80
2022/08/30 00:50:47;;;;;;;12.57;8.43;;;563.50;2432.00;;;;;;5070006;28;20025;-79
2022/08/30 00:53:18;;;;;;;9.23;8.20;;;538.50;2406.40;;;;;;5071718;28;20026;-79
2022/08/30 00:55:45;;;;;;;14.00;8.90;;;538.40;2406.40;;;;;;5071179;28;20468;-76
2022/08/30 00:58:20;;;;;;;11.43;8.18;;;563.20;2432.00;;;;;;5036673;28;20191;-80
2022/08/30 01:00:52;;;;;;;10.35;8.07;;;563.40;2432.00;;;;;;5045967;28;20056;-78
2022/08/30 01:03:18;;;;;;;;;;;563.50;2432.00;;;;;;5036709;28;20029;-77
2022/08/30 01:05:46;;;;;;;10.95;8.27;;;563.60;2432.00;;;;;;5040928;28;19963;-77
2022/08/30 01:08:12;;;;;;;9.98;7.50;;;563.60;2432.00;;;;;;5045302;28;20032;-77
2022/08/30 01:10:38;;;;;;;14.60;8.07;;;563.60;2432.00;;;;;;5053921;28;20025;-77
2022/08/30 01:13:04;;;;;;;10.65;7.97;;;563.60;2432.00;;;;;;5045842;28;20033;-77
2022/08/30 01:15:32;;;;;;;12.40;8.30;;;563.60;2432.00;;;;;;5038933;28;20501;-77
2022/08/30 01:17:58;;;;;;;12.15;8.02;;;563.60;2432.00;;;;;;5072281;28;20028;-77
2022/08/30 01:20:29;;;;;;;10.63;8.50;;;563.70;2432.00;;;;;;5039370;28;20104;-80
2022/08/30 01:23:11;;;;;;;13.52;8.98;;;563.60;2432.00;;;;;;5036730;28;20034;-78
2022/08/30 01:25:41;;;;;;;12.73;8.27;;;563.60;2432.00;;;;;;5084222;28;20037;-79
2022/08/30 01:28:10;;;;;;;10.88;8.18;;;563.60;2432.00;;;;;;5054217;28;20033;-78
2022/08/30 01:30:41;;;;;;;12.77;7.75;;;563.50;2432.00;;;;;;5045934;28;20442;-78
2022/08/30 01:33:10;;;;;;;12.93;7.68;;;563.50;2432.00;;;;;;5035269;28;20025;-78
2022/08/30 01:35:45;;;;;;;11.48;8.00;;;563.50;2432.00;;;;;;5035223;28;20434;-78
2022/08/30 01:38:13;;;;;;;11.02;8.20;;;563.50;2432.00;;;;;;5037062;28;20032;-79
2022/08/30 01:40:39;;;;;;;10.38;7.90;;;563.50;2432.00;;;;;;5035046;28;20029;-79
2022/08/30 01:43:05;;;;;;;10.30;8.13;;;563.30;2432.00;;;;;;5036476;28;20033;-79
2022/08/30 01:45:32;;;;;;;10.68;8.05;;;563.30;2432.00;;;;;;5035620;28;20470;-78
2022/08/30 01:47:57;;;;;;;10.50;8.98;;;563.30;2432.00;;;;;;5034932;28;20108;-79
2022/08/30 01:50:23;;;;;;;15.98;8.43;;;563.20;2432.00;;;;;;5037080;28;20093;-79
2022/08/30 01:52:49;;;;;;;12.02;8.52;;;563.20;2432.00;;;;;;5033030;28;20026;-78
2022/08/30 01:55:15;;;;;;;16.08;9.27;;;563.20;2432.00;;;;;;5032138;28;20056;-78
2022/08/30 01:57:41;;;;;;;12.43;9.60;;;538.30;2406.40;;;;;;5033347;28;20107;-78
2022/08/30 02:00:09;;;;;;;13.50;10.18;;;538.00;2406.40;;;;;;5055163;28;20044;-77
2022/08/30 02:02:35;;;;;;;12.68;10.75;;;537.90;2406.40;;;;;;5066468;28;20040;-79
2022/08/30 02:05:01;;;;;;;11.18;8.82;;;537.60;2406.40;;;;;;5035412;28;20028;-79
2022/08/30 02:07:27;;;;;;;14.60;8.70;;;537.70;2406.40;;;;;;5032126;28;20419;-79
2022/08/30 02:09:53;;;;;;;13.75;9.15;;;538.00;2406.40;;;;;;5032136;28;20026;-78
2022/08/30 02:12:19;;;;;;;11.07;8.65;;;538.20;2406.40;;;;;;5032770;28;20415;-78
2022/08/30 02:14:45;;;;;;;9.52;7.93;;;538.30;2406.40;;;;;;5031574;28;20041;-79
2022/08/30 02:17:13;;;;;;;12.00;8.65;;;538.30;2406.40;;;;;;5051441;28;20025;-77
2022/08/30 02:19:40;;;;;;;11.27;7.35;;;538.40;2406.40;;;;;;5052690;28;20025;-79
2022/08/30 02:22:06;;;;;;;9.90;7.95;;;538.40;2406.40;;;;;;5041465;28;20033;-77
2022/08/30 02:24:32;;;;;;;11.63;8.10;;;538.40;2406.40;;;;;;5040790;28;20486;-80
2022/08/30 02:26:58;;;;;;;11.73;8.50;;;538.50;2406.40;;;;;;5030994;28;20025;-80
2022/08/30 02:29:24;;;;;;;11.68;9.82;;;538.40;2406.40;;;;;;5032965;28;20585;-79
2022/08/30 02:31:50;;;;;;;15.40;9.27;;;538.40;2406.40;;;;;;5035908;28;20115;-80
2022/08/30 02:34:17;;;;;;;13.63;9.32;;;538.40;2406.40;;;;;;5039767;28;20072;-76
2022/08/30 02:36:44;;;;;;;12.98;9.88;;;538.40;2406.40;;;;;;5033191;28;20398;-75
2022/08/30 02:39:11;;;;;;;17.08;10.13;;;538.50;2406.40;;;;;;5032233;28;20037;-76
2022/08/30 02:41:38;;;;;;;10.77;9.63;;;538.50;2406.40;;;;;;5066077;28;20505;-77
2022/08/30 02:44:05;;;;;;;11.10;9.05;;;538.10;2406.40;;;;;;5032820;28;20036;-77
2022/08/30 02:46:30;;;;;;;13.30;9.18;;;538.40;2406.40;;;;;;5031130;28;20107;-77
2022/08/30 02:48:56;;;;;;;11.02;8.57;;;538.40;2406.40;;;;;;5029575;28;20072;-78
2022/08/30 02:51:22;;;;;;;14.23;9.35;;;538.50;2406.40;;;;;;5037105;28;20450;-78
2022/08/30 02:53:48;;;;;;;13.35;9.05;;;538.50;2406.40;;;;;;5036804;28;20418;-77
2022/08/30 02:56:15;;;;;;;13.65;9.93;;;538.40;2406.40;;;;;;5046358;28;20026;-78
2022/08/30 02:58:42;;;;;;;12.35;10.25;;;538.30;2406.40;;;;;;5036178;28;20017;-77
2022/08/30 03:01:11;;;;;;;11.45;10.05;;;538.20;2406.40;;;;;;5050404;28;20044;-79
2022/08/30 03:03:37;;;;;;;12.20;8.85;;;538.00;2406.40;;;;;;5033215;28;20037;-77
2022/08/30 03:06:02;;;;;;;12.57;9.00;;;538.10;2406.40;;;;;;5032616;28;20368;-76
2022/08/30 03:08:30;;;;;;;14.43;8.38;;;538.20;2406.40;;;;;;5032445;28;20072;-77
2022/08/30 03:10:56;;;;;;;11.27;7.95;;;538.20;2406.40;;;;;;5031072;28;20521;-77
2022/08/30 03:13:23;;;;;;;12.30;8.80;;;538.30;2406.40;;;;;;5064460;28;20020;-77
2022/08/30 03:15:49;;;;;;;13.07;9.07;;;538.30;2406.40;;;;;;5037180;28;20025;-77
2022/08/30 03:18:17;;;;;;;10.15;8.43;;;538.20;2406.40;;;;;;5034012;28;20414;-78
2022/08/30 03:20:43;;;;;;;9.52;8.13;;;538.20;2406.40;;;;;;5030405;28;20036;-77
2022/08/30 03:23:09;;;;;;;10.85;9.25;;;538.10;2406.40;;;;;;5032726;28;20029;-77
2022/08/30 03:25:35;;;;;;;9.82;7.97;;;538.20;2406.40;;;;;;5032844;28;20032;-77
2022/08/30 03:28:01;;;;;;;12.85;8.93;;;537.90;2406.40;;;;;;5032026;28;20048;-77
2022/08/30 03:30:28;;;;;;;11.82;8.98;;;538.00;2406.40;;;;;;5032568;28;20104;-78
2022/08/30 03:32:53;;;;;;;12.82;9.10;;;538.00;2406.40;;;;;;5031420;28;20118;-78
2022/08/30 03:35:19;;;;;;;13.40;9.68;;;537.90;2406.40;;;;;;5063711;28;20179;-79
2022/08/30 03:37:45;;;;;;;13.15;9.45;;;538.00;2406.40;;;;;;5032228;28;20040;-77
2022/08/30 03:40:14;;;;;;;15.85;9.70;;;537.90;2406.40;;;;;;5031625;28;20025;-77
2022/08/30 03:42:40;;;;;;;16.67;9.07;;;537.90;2406.40;;;;;;5066336;28;20029;-77
2022/08/30 03:45:07;;;;;;;11.98;9.25;;;538.00;2406.40;;;;;;5029673;28;20029;-77
2022/08/30 03:47:33;;;;;;;12.98;10.10;;;538.00;2406.40;;;;;;5030389;28;20022;-77
2022/08/30 03:49:59;;;;;;;15.30;9.65;;;538.00;2406.40;;;;;;5033923;28;20029;-78
2022/08/30 03:52:25;;;;;;;14.15;9.38;;;538.00;2406.40;;;;;;5046046;28;20028;-77
2022/08/30 03:54:51;;;;;;;11.32;9.65;;;537.70;2406.40;;;;;;5050820;28;20048;-77
2022/08/30 03:57:17;;;;;;;12.23;8.98;;;538.00;2406.40;;;;;;5043480;28;20092;-77
2022/08/30 03:59:42;;;;;;;13.13;9.57;;;538.00;2406.40;;;;;;5050285;28;20617;-77
2022/08/30 04:02:08;;;;;;;27.70;21.15;;;538.10;2406.40;;;;;;5050872;28;20128;-79
2022/08/30 04:04:34;;;;;;;28.65;20.13;;;538.00;2406.40;;;;;;5030259;28;20026;-78
2022/08/30 04:07:00;;;;;;;17.38;12.75;;;538.00;2406.40;;;;;;5066073;28;20032;-78
2022/08/30 04:09:25;;;;;;;15.63;11.15;;;538.00;2406.40;;;;;;5035270;28;20049;-77
2022/08/30 04:11:51;;;;;;;21.70;13.80;;;538.00;2406.40;;;;;;5029339;28;20156;-78
2022/08/30 04:14:17;;;;;;;13.75;11.52;;;537.70;2406.40;;;;;;5068543;28;20083;-79
2022/08/30 04:16:43;;;;;;;15.30;11.05;;;512.80;2380.80;;;;;;5031085;28;20109;-78
2022/08/30 04:19:09;;;;;;;14.70;9.32;;;512.90;2380.80;;;;;;5063241;28;20121;-78
2022/08/30 04:21:35;;;;;;;14.07;9.57;;;537.80;2406.40;;;;;;5030140;28;20434;-78
2022/08/30 04:24:02;;;;;;;15.32;10.98;;;512.90;2380.80;;;;;;5030565;28;20084;-78
2022/08/30 04:26:28;;;;;;;17.80;11.82;;;537.60;2406.40;;;;;;5033938;28;20036;-78
2022/08/30 04:28:55;;;;;;;14.80;10.77;;;512.80;2380.80;;;;;;5050258;28;20021;-77
2022/08/30 04:31:21;;;;;;;16.10;10.57;;;512.90;2380.80;;;;;;5048872;28;20029;-78
2022/08/30 04:33:47;;;;;;;12.88;9.65;;;537.60;2406.40;;;;;;5039249;28;20037;-77
2022/08/30 04:36:13;;;;;;;16.05;9.35;;;537.70;2406.40;;;;;;5049780;28;20048;-78
2022/08/30 04:38:40;;;;;;;15.15;9.85;;;537.70;2406.40;;;;;;5047347;28;20029;-78
2022/08/30 04:41:12;;;;;;;16.58;11.55;;;537.70;2406.40;;;;;;5039537;28;20098;-79
2022/08/30 04:43:38;;;;;;;21.73;13.30;;;512.80;2380.80;;;;;;5063697;28;20485;-78
2022/08/30 04:46:07;;;;;;;20.17;11.55;;;512.60;2329.60;;;;;;5030659;28;20028;-78
2022/08/30 04:48:33;;;;;;;14.32;10.48;;;512.70;2380.80;;;;;;5050787;28;20079;-78
2022/08/30 04:50:58;;;;;;;14.85;11.05;;;512.80;2380.80;;;;;;5033675;28;20037;-77
2022/08/30 04:53:24;;;;;;;15.50;11.18;;;512.90;2380.80;;;;;;5036904;28;20029;-78
2022/08/30 04:55:50;;;;;;;17.00;12.25;;;512.70;2380.80;;;;;;5040431;28;20056;-77
2022/08/30 04:58:16;;;;;;;15.40;12.20;;;512.50;2380.80;;;;;;5040942;28;20037;-78
2022/08/30 05:00:43;;;;;;;17.52;12.63;;;512.70;2380.80;;;;;;5034898;28;20041;-79
2022/08/30 05:03:09;;;;;;;16.30;13.10;;;512.80;2380.80;;;;;;5051748;28;20036;-77
2022/08/30 05:05:41;;;;;;;17.67;11.15;;;512.90;2380.80;;;;;;5054325;28;20028;-78
2022/08/30 05:08:12;;;;;;;16.20;12.05;;;537.60;2406.40;;;;;;5051336;28;20123;-78
2022/08/30 05:10:40;;;;;;;15.03;11.97;;;512.90;2380.80;;;;;;5054434;28;20128;-78
2022/08/30 05:13:06;;;;;;;12.70;11.30;;;512.90;2380.80;;;;;;5040465;28;20386;-78
2022/08/30 05:15:32;;;;;;;16.27;11.23;;;512.90;2380.80;;;;;;5075410;28;20102;-78
2022/08/30 05:17:58;;;;;;;13.80;11.05;;;537.60;2406.40;;;;;;5034973;28;20376;-80
2022/08/30 05:20:24;;;;;;;14.20;11.55;;;512.90;2380.80;;;;;;5066342;28;20120;-78
2022/08/30 05:22:50;;;;;;;16.85;13.68;;;537.60;2406.40;;;;;;5066461;28;20037;-79
2022/08/30 05:25:25;;;;;;;18.25;13.40;;;512.70;2380.80;;;;;;5033947;28;20494;-78
2022/08/30 05:27:51;;;;;;;14.35;11.27;;;512.80;2380.80;;;;;;5034798;28;20029;-78
2022/08/30 05:30:18;;;;;;;14.77;11.55;;;512.90;2380.80;;;;;;5032649;28;20021;-77
2022/08/30 05:32:44;;;;;;;17.05;10.27;;;537.60;2406.40;;;;;;5038663;28;20045;-77
2022/08/30 05:35:12;;;;;;;16.05;10.75;;;537.70;2406.40;;;;;;5033779;28;20061;-77
2022/08/30 05:37:38;;;;;;;13.25;10.07;;;537.70;2406.40;;;;;;5045386;28;20059;-78
2022/08/30 05:40:05;;;;;;;17.15;10.35;;;537.70;2406.40;;;;;;5052642;28;20058;-79
2022/08/30 05:42:32;;;;;;;16.63;11.45;;;537.70;2406.40;;;;;;5046381;28;20491;-77
2022/08/30 05:44:58;;;;;;;13.73;12.02;;;537.60;2406.40;;;;;;5035528;28;20078;-77
2022/08/30 05:47:24;;;;;;;18.83;14.30;;;537.60;2406.40;;;;;;5038429;28;20116;-78
2022/08/30 05:49:49;;;;;;;18.33;10.88;;;537.70;2022.40;;;;;;5037314;28;20112;-77
2022/08/30 05:52:17;;;;;;;20.15;11.63;;;537.70;2406.40;;;;;;5070535;28;20038;-77
2022/08/30 05:54:52;;;;;;;12.68;10.98;;;512.70;2380.80;;;;;;5034861;28;20079;-80
2022/08/30 05:57:19;;;;;;;13.60;10.85;;;537.60;2406.40;;;;;;5041778;28;20025;-77
2022/08/30 05:59:45;;;;;;;17.02;10.90;;;537.60;2406.40;;;;;;5037054;28;20079;-79
2022/08/30 06:02:11;;;;;;;16.65;10.68;;;537.90;2355.20;;;;;;5038611;28;20104;-78
2022/08/30 06:04:37;;;;;;;12.10;10.00;;;537.90;2406.40;;;;;;5052132;28;20129;-79
2022/08/30 06:07:03;;;;;;;12.82;10.50;;;538.00;2406.40;;;;;;5049851;28;20079;-78
2022/08/30 06:09:30;;;;;;;15.95;11.45;;;538.00;2406.40;;;;;;5034950;28;20029;-78
2022/08/30 06:11:56;;;;;;;15.80;11.52;;;538.20;2073.60;;;;;;5068417;28;20034;-77
2022/08/30 06:14:23;;;;;;;13.70;10.30;;;538.20;2073.60;;;;;;5037218;28;20054;-78
2022/08/30 06:16:50;;;;;;;11.98;9.38;;;538.30;2406.40;;;;;;5036312;28;20033;-79
2022/08/30 06:19:17;;;;;;;14.95;9.57;;;537.90;2406.40;;;;;;5037646;28;20029;-79
2022/08/30 06:21:47;;;;;;;15.10;11.30;;;538.50;2406.40;;;;;;5035581;28;20029;-78
2022/08/30 06:24:13;;;;;;;15.05;11.98;;;538.20;2406.40;;;;;;5039171;28;20030;-78
2022/08/30 06:26:42;;;;;;;16.33;13.23;;;538.00;2406.40;;;;;;5066069;28;20025;-78
2022/08/30 06:29:10;;;;;;;18.27;12.82;;;538.20;2406.40;;;;;;5065813;28;20044;-78
2022/08/30 06:31:36;;;;;;;15.80;12.23;;;538.00;2406.40;;;;;;5033310;28;20083;-78
2022/08/30 06:34:03;;;;;;;17.23;11.25;;;538.40;2406.40;;;;;;5069359;28;20044;-78
2022/08/30 06:36:29;;;;;;;16.48;11.50;;;538.00;2406.40;;;;;;5033242;28;20052;-78
2022/08/30 06:38:56;;;;;;;18.02;12.32;;;538.30;2252.80;;;;;;5034181;28;20115;-78
2022/08/30 06:41:25;;;;;;;15.38;13.77;;;538.50;2406.40;;;;;;5032900;28;20184;-77
2022/08/30 06:43:52;;;;;;;15.23;10.80;;;563.30;2432.00;;;;;;5039173;28;20025;-81
2022/08/30 06:46:21;;;;;;;29.52;13.73;;;563.30;2432.00;;;;;;5034407;28;20032;-78
2022/08/30 06:48:47;;;;;;;17.45;11.75;;;563.50;2432.00;;;;;;5036255;28;20025;-78
2022/08/30 06:51:13;;;;;;;13.73;11.50;;;563.40;2432.00;;;;;;5067532;28;20390;-79
2022/08/30 06:53:39;;;;;;;13.77;10.63;;;564.10;2432.00;;;;;;5032148;28;20029;-79
2022/08/30 06:56:08;;;;;;;14.68;12.30;;;563.60;2432.00;;;;;;5040922;28;20478;-80
2022/08/30 06:58:36;;;;;;;14.52;12.60;;;563.60;2432.00;;;;;;5030979;28;20108;-78
2022/08/30 07:01:04;;;;;;;14.68;13.02;;;563.80;2432.00;;;;;;5066359;28;20115;-77
2022/08/30 07:03:30;;;;;;;19.15;12.27;;;563.80;2432.00;;;;;;5072909;28;20964;-78
2022/08/30 07:05:57;;;;;;;18.50;11.82;;;563.90;2432.00;;;;;;5046762;28;20036;-80
2022/08/30 07:08:24;;;;;;;12.50;10.93;;;563.80;2432.00;;;;;;5046332;28;20108;-79
2022/08/30 07:10:52;;;;;;;12.23;10.73;;;563.80;2432.00;;;;;;5035230;28;20025;-81
2022/08/30 07:13:19;;;;;;;12.95;11.30;;;563.90;2432.00;;;;;;5080398;28;20120;-82
2022/08/30 07:15:46;;;;;;;13.65;9.45;;;563.90;2432.00;;;;;;5042390;28;20123;-81
2022/08/30 07:21:04;;;;;;;12.95;9.93;;;564.10;2432.00;;;;;;5031999;28;20410;-81
2022/08/30 07:23:29;;;;;;;10.98;7.65;;;564.10;2432.00;;;;;;5031760;28;20034;-80
2022/08/30 07:25:55;;;;;;;8.85;7.85;;;564.00;2432.00;;;;;;5035706;28;20490;-80
2022/08/30 07:28:21;;;;;;;11.00;8.80;;;564.10;2432.00;;;;;;5037905;28;20021;-81
2022/08/30 07:30:47;;;;;;;14.02;9.38;;;564.00;2432.00;;;;;;5035250;28;20033;-81
2022/08/30 07:33:13;;;;;;;12.77;9.95;;;564.00;2432.00;;;;;;5038955;28;20037;-80
2022/08/30 07:35:39;;;;;;;11.80;9.02;;;564.00;2432.00;;;;;;5041084;28;20073;-79
2022/08/30 07:38:05;;;;;;;12.23;9.57;;;564.10;2432.00;;;;;;5032255;28;20029;-80
2022/08/30 07:40:31;;;;;;;14.23;9.07;;;564.10;2432.00;;;;;;5030472;28;20132;-81
2022/08/30 07:43:00;;;;;;;12.88;7.72;;;588.80;2432.00;;;;;;5034740;28;20080;-81
2022/08/30 07:45:26;;;;;;;9.50;8.02;;;564.10;2432.00;;;;;;5038632;28;20033;-81
2022/08/30 07:47:52;;;;;;;11.00;8.38;;;588.90;2432.00;;;;;;5032407;28;20467;-79
2022/08/30 07:50:18;;;;;;;11.70;7.35;;;589.10;2432.00;;;;;;5035791;28;20532;-81
2022/08/30 07:52:44;;;;;;;8.38;7.25;;;589.40;2432.00;;;;;;5037316;28;20565;-82
2022/08/30 07:55:09;;;;;;;9.73;7.63;;;589.40;2432.00;;;;;;5039394;28;20427;-83
2022/08/30 07:57:35;;;;;;;15.88;8.20;;;589.20;2432.00;;;;;;5041485;28;20043;-82
2022/08/30 08:00:01;;;;;;;17.83;9.25;;;589.40;2432.00;;;;;;5043227;28;20367;-81
2022/08/30 08:02:27;;;;;;;10.88;8.50;;;589.40;2432.00;;;;;;5050664;28;20032;-83
2022/08/30 08:04:53;;;;;;;12.05;8.05;;;589.60;2432.00;;;;;;5046300;28;20071;-81
2022/08/30 08:07:19;;;;;;;11.38;8.55;;;589.60;2432.00;;;;;;5036401;28;20041;-81
2022/08/30 08:09:45;;;;;;;11.68;8.68;;;589.70;2432.00;;;;;;5038270;28;20035;-84
2022/08/30 08:12:10;;;;;;;13.63;9.57;;;614.60;2432.00;;;;;;5037643;28;20060;-82
2022/08/30 08:14:36;;;;;;;11.80;8.77;;;614.70;2432.00;;;;;;5038119;28;20037;-82
2022/08/30 08:17:03;;;;;;;14.75;8.25;;;614.80;2432.00;;;;;;5039360;28;20108;-82
2022/08/30 08:19:29;;;;;;;13.23;9.73;;;614.90;2432.00;;;;;;5044082;28;20030;-83
2022/08/30 08:21:58;;;;;;;12.88;8.27;;;615.00;2432.00;;;;;;5039204;28;20056;-82
2022/08/30 08:24:28;;;;;;;11.57;7.63;;;615.10;2432.00;;;;;;5041966;28;20034;-81
2022/08/30 08:26:55;;;;;;;14.27;7.95;;;615.10;2432.00;;;;;;5042957;28;20041;-83
2022/08/30 08:29:21;;;;;;;15.57;8.38;;;615.20;2432.00;;;;;;5054536;28;20088;-82
2022/08/30 08:31:47;;;;;;;11.60;7.95;;;615.10;2432.00;;;;;;5045387;28;20363;-82
2022/08/30 08:34:14;;;;;;;11.23;7.60;;;615.10;2432.00;;;;;;5044177;28;20029;-82
2022/08/30 08:36:40;;;;;;;13.43;8.57;;;614.80;2432.00;;;;;;5042407;28;20053;-82
2022/08/30 08:39:08;;;;;;;9.73;8.73;;;614.80;2432.00;;;;;;5039427;28;20030;-82
2022/08/30 08:41:55;;;;;;;11.40;8.82;;;614.80;2432.00;;;;;;5046921;28;20025;-83
2022/08/30 08:44:49;;;;;;;12.93;8.32;;;614.90;2432.00;;;;;;5049033;28;20033;-82
2022/08/30 08:47:39;;;;;;;10.35;7.65;;;615.00;2432.00;;;;;;5056881;28;20033;-83
2022/08/30 08:50:12;;;;;;;9.68;8.45;;;614.90;2432.00;;;;;;5049598;28;20035;-83
2022/08/30 08:55:57;;;;;;;10.82;8.73;;;615.10;2432.00;;;;;;5049672;28;20109;-84
2022/08/30 08:58:27;;;;;;;11.60;8.93;;;615.10;2432.00;;;;;;5051923;28;20427;-83
2022/08/30 09:00:56;;;;;;;13.38;9.02;;;615.20;2432.00;;;;;;5050405;28;20025;-84
2022/08/30 09:03:25;;;;;;;15.25;8.82;;;615.20;2432.00;;;;;;5049101;28;20450;-84
2022/08/30 09:05:52;;;;;;;9.65;8.15;;;640.00;2432.00;;;;;;5054020;28;20100;-83
2022/08/30 09:08:18;;;;;;;12.32;9.25;;;640.10;2432.00;;;;;;5051316;28;20451;-83
2022/08/30 09:11:12;;;;;;;14.98;8.80;;;640.20;2432.00;;;;;;5044575;28;20045;-83
2022/08/30 09:13:37;;;;;;;17.88;9.82;;;640.20;2432.00;;;;;;5049313;28;20466;-84
2022/08/30 09:16:04;;;;;;;14.05;9.77;;;640.40;2432.00;;;;;;5047542;28;20055;-82
2022/08/30 09:18:45;;;;;;;12.73;8.32;;;640.50;2432.00;;;;;;5050542;28;20021;-84
2022/08/30 09:21:12;;;;;;;15.60;8.45;;;640.60;2432.00;;;;;;5044373;28;20029;-83
2022/08/30 09:23:49;;;;;;;13.02;8.48;;;640.80;2432.00;;;;;;5034621;28;20080;-81
2022/08/30 09:26:31;;;;;;;8.55;7.45;;;665.60;2432.00;;;;;;5034304;28;20116;-82
2022/08/30 09:28:58;;;;;;;14.95;7.88;;;665.80;2432.00;;;;;;5043991;28;20025;-83
2022/08/30 09:31:44;;;;;;;11.15;8.00;;;665.60;2432.00;;;;;;5036884;28;20120;-82
2022/08/30 09:34:17;;;;;;;12.10;8.02;;;665.90;2432.00;;;;;;5075415;28;20037;-82
2022/08/30 09:36:48;;;;;;;13.07;7.63;;;666.20;2432.00;;;;;;5039046;28;20061;-82
2022/08/30 09:39:32;;;;;;;13.45;7.18;;;666.20;2432.00;;;;;;5037965;28;20021;-83
2022/08/30 09:42:21;;;;;;;12.27;8.70;;;666.40;2432.00;;;;;;5048092;28;20117;-80
2022/08/30 09:44:47;;;;;;;10.15;6.63;;;666.30;2432.00;;;;;;5048393;28;20033;-80
2022/08/30 09:47:27;;;;;;;11.27;7.57;;;666.20;2432.00;;;;;;5034470;28;20438;-80
2022/08/30 09:50:11;;;;;;;13.02;7.30;;;666.20;2432.00;;;;;;5044723;28;20036;-79
2022/08/30 09:52:39;;;;;;;9.73;6.97;;;666.00;2432.00;;;;;;5052465;28;20033;-79
2022/08/30 09:55:24;;;;;;;9.65;7.70;;;666.20;2432.00;;;;;;5045470;28;20091;-79
2022/08/30 09:58:04;;;;;;;9.95;7.20;;;666.40;2432.00;;;;;;5035236;28;20026;-80
2022/08/30 10:00:39;;;;;;;14.73;8.05;;;666.50;2432.00;;;;;;5037462;28;20021;-81
2022/08/30 10:03:36;;;;;;;14.93;8.07;;;691.20;2432.00;;;;;;5047405;28;20029;-80
2022/08/30 10:06:09;;;;;;;11.85;7.25;;;691.60;2432.00;;;;;;5035072;28;20041;-79
2022/08/30 10:08:38;;;;;;;8.40;6.95;;;691.70;2432.00;;;;;;5042729;28;20112;-81
2022/08/30 10:11:42;;;;;;;9.13;7.53;;;691.90;2432.00;;;;;;5045487;28;20040;-80
2022/08/30 10:14:20;;;;;;;13.48;8.00;;;692.00;2432.00;;;;;;5023103;28;20045;-80
2022/08/30 10:16:54;;;;;;;18.58;9.48;;;691.90;2432.00;;;;;;5034406;28;20530;-79
2022/08/30 10:19:55;;;;;;;11.02;8.73;;;716.80;2432.00;;;;;;5043078;28;20105;-78
2022/08/30 10:22:33;;;;;;;10.65;7.75;;;716.90;2432.00;;;;;;5071328;28;20030;-80
2022/08/30 10:25:10;;;;;;;14.48;10.05;;;717.10;2432.00;;;;;;5070155;28;20060;-79
2022/08/30 10:28:02;;;;;;;12.98;8.63;;;717.20;2432.00;;;;;;5041191;28;20049;-78
2022/08/30 10:30:32;;;;;;;10.00;7.80;;;717.10;2432.00;;;;;;5031470;28;20395;-79
2022/08/30 10:33:10;;;;;;;10.98;8.32;;;716.90;2432.00;;;;;;5034152;28;20041;-78
2022/08/30 10:36:03;;;;;;;9.60;7.10;;;716.80;2432.00;;;;;;5064728;28;20112;-78
2022/08/30 10:38:33;;;;;;;9.15;6.75;;;717.00;2432.00;;;;;;5043737;28;20041;-79
2022/08/30 10:41:26;;;;;;;13.30;6.55;;;717.00;2432.00;;;;;;5032248;28;20139;-78
2022/08/30 10:43:58;;;;;;;16.95;7.55;;;717.00;2432.00;;;;;;5038516;28;20029;-78
2022/08/30 10:46:57;;;;;;;12.55;7.57;;;717.20;2432.00;;;;;;5036604;28;20102;-80
2022/08/30 10:49:26;;;;;;;9.55;8.25;;;717.40;2432.00;;;;;;5034951;28;20056;-77
2022/08/30 10:52:10;;;;;;;11.85;7.75;;;717.40;2432.00;;;;;;5064773;28;20025;-78
2022/08/30 10:54:57;;;;;;;13.63;9.55;;;717.50;2432.00;;;;;;5034944;28;20045;-78
2022/08/30 10:57:23;;;;;;;26.35;22.20;;;742.50;2432.00;;;;;;5070809;28;20084;-78
2022/08/30 11:00:07;;;;;;;24.05;19.45;;;742.70;2432.00;;;;;;5043178;28;20386;-79
2022/08/30 11:02:57;;;;;;;12.73;9.27;;;742.90;2432.00;;;;;;5044193;28;20037;-78
2022/08/30 11:05:48;;;;;;;11.38;9.80;;;742.60;2432.00;;;;;;5032156;28;20021;-79
2022/08/30 11:08:34;;;;;;;11.30;9.05;;;742.50;2432.00;;;;;;5045043;28;20033;-79
2022/08/30 11:11:31;;;;;;;11.00;8.70;;;742.80;2432.00;;;;;;5033545;28;20041;-80
2022/08/30 11:14:01;;;;;;;8.75;7.40;;;742.80;2432.00;;;;;;5031879;28;22870;-80
2022/08/30 11:16:42;;;;;;;10.88;8.35;;;743.20;2432.00;;;;;;5034617;28;20025;-79
2022/08/30 11:19:20;;;;;;;9.82;8.82;;;768.20;2432.00;;;;;;5070752;28;20030;-82
2022/08/30 11:21:46;;;;;;;10.43;8.90;;;768.40;2432.00;;;;;;5033429;28;20052;-80
2022/08/30 11:24:23;;;;;;;12.15;8.45;;;768.60;2432.00;;;;;;5035950;28;20232;-81
2022/08/30 11:26:51;;;;;;;8.52;7.47;;;768.80;2432.00;;;;;;5041142;28;20747;-81
2022/08/30 11:29:33;;;;;;;11.18;8.20;;;;;;;;;;5032680;28;20025;-80
2022/08/30 11:32:11;;;;;;;8.82;7.82;;;;;;;;;;5045584;28;20116;-80
2022/08/30 11:34:46;;;;;;;11.00;9.70;;;;;;;;;;5033322;28;20075;-81
2022/08/30 11:37:34;;;;;;;15.82;9.70;;;768.20;2432.00;;;;;;5038627;28;20048;-80
2022/08/30 11:40:05;;;;;;;8.13;6.00;;;768.50;2432.00;;;;;;5031272;28;20022;-81
2022/08/30 11:42:44;;;;;;;11.37;7.47;;;768.40;2432.00;;;;;;5036042;28;20036;-80
2022/08/30 11:45:22;;;;;;;8.70;7.68;;;768.80;2432.00;;;;;;5047804;28;20028;-82
2022/08/30 11:47:50;;;;;;;10.90;7.18;;;794.00;2432.00;;;;;;5036811;28;20039;-82
2022/08/30 11:50:35;;;;;;;7.82;6.80;;;794.10;2432.00;;;;;;5030937;28;20017;-81
2022/08/30 11:53:14;;;;;;;12.07;9.23;;;819.20;2432.00;;;;;;5034740;28;20041;-82
2022/08/30 11:55:40;;;;;;;10.27;8.18;;;819.20;2380.80;;;;;;5036195;28;20040;-81
2022/08/30 11:58:18;;;;;;;8.02;6.40;;;819.40;2432.00;;;;;;5037750;28;20029;-80
2022/08/30 12:00:46;;;;;;;7.90;6.97;;;819.20;2380.80;;;;;;5037570;28;20041;-80
2022/08/30 12:03:15;;;;;;;8.25;6.80;;;794.20;2432.00;;;;;;5043786;28;20032;-80
2022/08/30 12:05:50;;;;;;;8.25;6.60;;;794.10;2355.20;;;;;;5039854;28;20072;-81
2022/08/30 12:08:19;;;;;;;9.75;6.70;;;794.20;2380.80;;;;;;5049393;28;20036;-80
2022/08/30 12:10:53;;;;;;;8.10;6.32;;;794.20;2329.60;;;;;;5050906;28;20031;-80
2022/08/30 12:13:34;;;;;;;8.15;6.47;;;819.70;2355.20;;;;;;5050730;28;20025;-80
2022/08/30 12:16:13;;;;;;;7.47;5.63;;;819.60;2329.60;;;;;;5034713;28;20100;-80
2022/08/30 12:18:45;;;;;;;7.82;5.80;;;819.80;2329.60;;;;;;5033740;28;20522;-80
2022/08/30 12:21:19;;;;;;;8.48;6.65;;;819.80;2150.40;;;;;;5035049;28;20128;-79
2022/08/30 12:24:01;;;;;;;8.57;5.95;;;819.40;2201.60;;;;;;5035375;28;20096;-78
2022/08/30 12:26:26;;;;;;;8.80;5.85;;;819.70;2176.00;;;;;;5032580;28;20029;-80
2022/08/30 12:29:07;;;;;;;6.97;4.90;;;819.70;2176.00;;;;;;5047790;28;20021;-80